sensor_id;sensor_type;location;lat;lon;timestamp;temperature;humidity
40816;DHT22;26535;48.788;9.214;2023-06-04T00:00:43;17.20;76.10
40816;DHT22;26535;48.788;9.214;2023-06-04T05:01:56;14.90;77.50
40816;DHT22;26535;48.788;9.214;2023-06-04T05:04:22;15.00;77.80
40816;DHT22;26535;48.788;9.214;2023-06-04T05:06:47;15.10;78.00
40816;DHT22;26535;48.788;9.214;2023-06-04T05:09:13;15.10;76.90
40816;DHT22;26535;48.788;9.214;2023-06-04T05:11:39;15.10;77.50
40816;DHT22;26535;48.788;9.214;2023-06-04T05:14:05;15.10;77.80
40816;DHT22;26535;48.788;9.214;2023-06-04T05:16:33;15.20;77.30
40816;DHT22;26535;48.788;9.214;2023-06-04T05:19:01;15.30;77.00
40816;DHT22;26535;48.788;9.214;2023-06-04T05:21:31;15.40;76.30
40816;DHT22;26535;48.788;9.214;2023-06-04T05:24:02;15.40;76.60
40816;DHT22;26535;48.788;9.214;2023-06-04T05:26:32;15.60;76.00
40816;DHT22;26535;48.788;9.214;2023-06-04T05:29:02;15.70;75.20
40816;DHT22;26535;48.788;9.214;2023-06-04T05:31:33;15.80;74.80
40816;DHT22;26535;48.788;9.214;2023-06-04T05:34:00;15.90;72.80
40816;DHT22;26535;48.788;9.214;2023-06-04T05:36:29;16.00;71.60
40816;DHT22;26535;48.788;9.214;2023-06-04T05:38:58;16.20;71.50
40816;DHT22;26535;48.788;9.214;2023-06-04T05:41:31;16.20;70.10
40816;DHT22;26535;48.788;9.214;2023-06-04T05:43:57;16.20;70.60
40816;DHT22;26535;48.788;9.214;2023-06-04T05:46:23;16.20;70.60
40816;DHT22;26535;48.788;9.214;2023-06-04T05:48:49;16.10;70.00
40816;DHT22;26535;48.788;9.214;2023-06-04T05:51:17;16.20;70.90
40816;DHT22;26535;48.788;9.214;2023-06-04T05:53:43;16.20;71.40
40816;DHT22;26535;48.788;9.214;2023-06-04T05:56:09;16.20;70.40
40816;DHT22;26535;48.788;9.214;2023-06-04T05:58:36;16.30;70.80
40816;DHT22;26535;48.788;9.214;2023-06-04T06:01:03;16.40;70.40
40816;DHT22;26535;48.788;9.214;2023-06-04T06:03:29;16.50;70.90
40816;DHT22;26535;48.788;9.214;2023-06-04T06:05:57;16.60;69.80
40816;DHT22;26535;48.788;9.214;2023-06-04T06:08:23;16.70;69.70
40816;DHT22;26535;48.788;9.214;2023-06-04T06:10:50;16.90;69.00
40816;DHT22;26535;48.788;9.214;2023-06-04T06:13:16;17.00;68.30
40816;DHT22;26535;48.788;9.214;2023-06-04T06:15:41;17.00;68.00
40816;DHT22;26535;48.788;9.214;2023-06-04T06:18:07;17.10;67.60
40816;DHT22;26535;48.788;9.214;2023-06-04T06:20:33;17.20;66.60
40816;DHT22;26535;48.788;9.214;2023-06-04T06:23:06;17.20;66.50
40816;DHT22;26535;48.788;9.214;2023-06-04T06:25:32;17.20;66.60
40816;DHT22;26535;48.788;9.214;2023-06-04T06:28:03;17.30;66.60
40816;DHT22;26535;48.788;9.214;2023-06-04T06:30:29;17.40;66.90
40816;DHT22;26535;48.788;9.214;2023-06-04T06:32:55;17.50;66.50
40816;DHT22;26535;48.788;9.214;2023-06-04T06:35:21;17.50;66.40
40816;DHT22;26535;48.788;9.214;2023-06-04T06:37:47;17.50;66.50
40816;DHT22;26535;48.788;9.214;2023-06-04T06:40:13;17.60;66.90
40816;DHT22;26535;48.788;9.214;2023-06-04T06:42:38;17.70;66.60
40816;DHT22;26535;48.788;9.214;2023-06-04T06:45:04;17.80;66.20
40816;DHT22;26535;48.788;9.214;2023-06-04T06:47:30;17.80;66.80
40816;DHT22;26535;48.788;9.214;2023-06-04T06:49:56;17.90;66.70
40816;DHT22;26535;48.788;9.214;2023-06-04T06:52:22;17.90;66.20
40816;DHT22;26535;48.788;9.214;2023-06-04T06:54:47;18.00;66.90
40816;DHT22;26535;48.788;9.214;2023-06-04T06:57:13;18.10;67.10
40816;DHT22;26535;48.788;9.214;2023-06-04T06:59:39;18.20;67.00
40816;DHT22;26535;48.788;9.214;2023-06-04T07:02:05;18.30;66.70
40816;DHT22;26535;48.788;9.214;2023-06-04T07:04:31;18.40;65.90
40816;DHT22;26535;48.788;9.214;2023-06-04T07:06:57;18.40;65.60
40816;DHT22;26535;48.788;9.214;2023-06-04T07:09:23;18.40;65.80
40816;DHT22;26535;48.788;9.214;2023-06-04T07:11:48;18.70;65.70
40816;DHT22;26535;48.788;9.214;2023-06-04T07:14:14;18.90;65.50
40816;DHT22;26535;48.788;9.214;2023-06-04T07:16:40;19.20;64.90
40816;DHT22;26535;48.788;9.214;2023-06-04T07:19:06;19.40;64.20
40816;DHT22;26535;48.788;9.214;2023-06-04T07:21:31;19.60;63.50
40816;DHT22;26535;48.788;9.214;2023-06-04T07:23:57;19.80;63.20
40816;DHT22;26535;48.788;9.214;2023-06-04T07:26:23;20.10;63.30
40816;DHT22;26535;48.788;9.214;2023-06-04T07:28:50;20.30;62.40
40816;DHT22;26535;48.788;9.214;2023-06-04T07:31:17;20.30;62.90
40816;DHT22;26535;48.788;9.214;2023-06-04T07:33:43;20.60;62.50
40816;DHT22;26535;48.788;9.214;2023-06-04T07:36:16;20.70;61.50
40816;DHT22;26535;48.788;9.214;2023-06-04T07:38:42;20.70;61.30
40816;DHT22;26535;48.788;9.214;2023-06-04T07:41:08;20.80;61.20
40816;DHT22;26535;48.788;9.214;2023-06-04T07:43:35;20.70;61.20
40816;DHT22;26535;48.788;9.214;2023-06-04T07:46:04;21.00;62.00
40816;DHT22;26535;48.788;9.214;2023-06-04T07:48:30;21.10;61.20
40816;DHT22;26535;48.788;9.214;2023-06-04T07:50:58;21.20;60.80
40816;DHT22;26535;48.788;9.214;2023-06-04T07:53:24;21.30;61.10
40816;DHT22;26535;48.788;9.214;2023-06-04T07:55:51;21.50;61.00
40816;DHT22;26535;48.788;9.214;2023-06-04T07:58:17;21.40;60.40
40816;DHT22;26535;48.788;9.214;2023-06-04T08:00:43;21.30;61.10
40816;DHT22;26535;48.788;9.214;2023-06-04T08:03:09;21.40;61.70
40816;DHT22;26535;48.788;9.214;2023-06-04T08:05:35;21.50;61.30
40816;DHT22;26535;48.788;9.214;2023-06-04T08:08:01;21.60;61.10
40816;DHT22;26535;48.788;9.214;2023-06-04T08:10:29;21.40;61.10
40816;DHT22;26535;48.788;9.214;2023-06-04T08:12:55;21.40;61.50
40816;DHT22;26535;48.788;9.214;2023-06-04T08:15:21;21.40;61.50
40816;DHT22;26535;48.788;9.214;2023-06-04T08:17:47;21.10;62.30
40816;DHT22;26535;48.788;9.214;2023-06-04T08:20:12;21.10;62.60
40816;DHT22;26535;48.788;9.214;2023-06-04T08:22:38;21.10;61.80
40816;DHT22;26535;48.788;9.214;2023-06-04T08:25:04;21.20;62.00
40816;DHT22;26535;48.788;9.214;2023-06-04T08:27:30;21.40;62.20
40816;DHT22;26535;48.788;9.214;2023-06-04T08:29:57;21.60;61.10
40816;DHT22;26535;48.788;9.214;2023-06-04T08:32:23;21.70;61.10
40816;DHT22;26535;48.788;9.214;2023-06-04T08:34:49;21.80;61.20
40816;DHT22;26535;48.788;9.214;2023-06-04T08:37:17;21.90;60.20
40816;DHT22;26535;48.788;9.214;2023-06-04T08:39:42;22.00;60.50
40816;DHT22;26535;48.788;9.214;2023-06-04T08:42:36;22.10;60.60
40816;DHT22;26535;48.788;9.214;2023-06-04T08:44:58;22.30;60.50
40816;DHT22;26535;48.788;9.214;2023-06-04T08:47:28;22.30;60.70
40816;DHT22;26535;48.788;9.214;2023-06-04T08:49:59;22.40;61.10
40816;DHT22;26535;48.788;9.214;2023-06-04T08:52:26;22.50;61.20
40816;DHT22;26535;48.788;9.214;2023-06-04T08:54:54;22.50;60.80
40816;DHT22;26535;48.788;9.214;2023-06-04T08:57:20;22.60;60.30
40816;DHT22;26535;48.788;9.214;2023-06-04T08:59:46;22.70;61.00
40816;DHT22;26535;48.788;9.214;2023-06-04T09:02:16;22.90;60.70
40816;DHT22;26535;48.788;9.214;2023-06-04T09:04:45;22.80;60.50
40816;DHT22;26535;48.788;9.214;2023-06-04T09:07:13;22.80;60.50
40816;DHT22;26535;48.788;9.214;2023-06-04T09:09:40;22.80;59.60
40816;DHT22;26535;48.788;9.214;2023-06-04T09:12:15;22.90;60.00
40816;DHT22;26535;48.788;9.214;2023-06-04T09:14:43;22.90;59.60
40816;DHT22;26535;48.788;9.214;2023-06-04T09:17:08;23.00;59.80
40816;DHT22;26535;48.788;9.214;2023-06-04T09:19:34;23.10;59.30
40816;DHT22;26535;48.788;9.214;2023-06-04T09:22:00;23.10;59.30
40816;DHT22;26535;48.788;9.214;2023-06-04T09:27:18;23.40;58.40
40816;DHT22;26535;48.788;9.214;2023-06-04T09:29:56;23.50;58.20
40816;DHT22;26535;48.788;9.214;2023-06-04T09:32:29;23.60;58.10
40816;DHT22;26535;48.788;9.214;2023-06-04T09:35:15;23.60;57.60
40816;DHT22;26535;48.788;9.214;2023-06-04T09:37:42;23.70;57.80
40816;DHT22;26535;48.788;9.214;2023-06-04T09:40:09;23.80;57.60
40816;DHT22;26535;48.788;9.214;2023-06-04T09:42:50;23.90;56.90
40816;DHT22;26535;48.788;9.214;2023-06-04T09:45:33;24.00;56.60
40816;DHT22;26535;48.788;9.214;2023-06-04T09:48:00;24.00;56.30
40816;DHT22;26535;48.788;9.214;2023-06-04T09:50:33;24.10;56.20
40816;DHT22;26535;48.788;9.214;2023-06-04T09:53:18;24.20;56.30
40816;DHT22;26535;48.788;9.214;2023-06-04T09:55:43;24.40;54.90
40816;DHT22;26535;48.788;9.214;2023-06-04T09:58:11;24.40;54.60
40816;DHT22;26535;48.788;9.214;2023-06-04T10:00:40;24.40;55.10
40816;DHT22;26535;48.788;9.214;2023-06-04T10:03:12;24.50;54.50
40816;DHT22;26535;48.788;9.214;2023-06-04T10:05:40;24.60;54.20
40816;DHT22;26535;48.788;9.214;2023-06-04T10:08:06;24.40;55.00
40816;DHT22;26535;48.788;9.214;2023-06-04T10:10:35;24.50;54.10
40816;DHT22;26535;48.788;9.214;2023-06-04T10:13:07;24.60;53.80
40816;DHT22;26535;48.788;9.214;2023-06-04T10:15:36;24.70;53.50
40816;DHT22;26535;48.788;9.214;2023-06-04T10:18:02;24.80;52.90
40816;DHT22;26535;48.788;9.214;2023-06-04T10:20:30;24.90;52.40
40816;DHT22;26535;48.788;9.214;2023-06-04T10:22:57;24.90;52.70
40816;DHT22;26535;48.788;9.214;2023-06-04T10:25:23;24.90;52.90
40816;DHT22;26535;48.788;9.214;2023-06-04T10:27:51;24.90;53.10
40816;DHT22;26535;48.788;9.214;2023-06-04T10:30:17;24.90;53.60
40816;DHT22;26535;48.788;9.214;2023-06-04T10:32:43;25.10;53.80
40816;DHT22;26535;48.788;9.214;2023-06-04T10:35:09;25.20;53.40
40816;DHT22;26535;48.788;9.214;2023-06-04T10:37:35;25.30;53.10
40816;DHT22;26535;48.788;9.214;2023-06-04T10:40:01;25.40;53.70
40816;DHT22;26535;48.788;9.214;2023-06-04T10:42:37;25.50;53.00
40816;DHT22;26535;48.788;9.214;2023-06-04T10:45:04;25.60;53.10
40816;DHT22;26535;48.788;9.214;2023-06-04T10:47:30;25.80;53.10
40816;DHT22;26535;48.788;9.214;2023-06-04T10:50:11;25.90;52.70
40816;DHT22;26535;48.788;9.214;2023-06-04T10:52:38;25.90;52.60
40816;DHT22;26535;48.788;9.214;2023-06-04T10:55:07;25.90;52.90
40816;DHT22;26535;48.788;9.214;2023-06-04T10:57:34;26.00;53.00
40816;DHT22;26535;48.788;9.214;2023-06-04T11:00:00;26.10;52.20
40816;DHT22;26535;48.788;9.214;2023-06-04T11:02:29;26.10;52.40
40816;DHT22;26535;48.788;9.214;2023-06-04T11:05:01;26.30;52.00
40816;DHT22;26535;48.788;9.214;2023-06-04T11:07:46;26.50;52.30
40816;DHT22;26535;48.788;9.214;2023-06-04T11:10:13;26.50;52.00
40816;DHT22;26535;48.788;9.214;2023-06-04T11:12:43;26.60;51.80
40816;DHT22;26535;48.788;9.214;2023-06-04T11:15:09;26.70;51.10
40816;DHT22;26535;48.788;9.214;2023-06-04T11:17:35;26.90;51.70
40816;DHT22;26535;48.788;9.214;2023-06-04T11:20:02;27.00;51.40
40816;DHT22;26535;48.788;9.214;2023-06-04T11:22:32;27.00;51.00
40816;DHT22;26535;48.788;9.214;2023-06-04T11:24:59;27.30;51.00
40816;DHT22;26535;48.788;9.214;2023-06-04T11:27:25;27.70;50.00
40816;DHT22;26535;48.788;9.214;2023-06-04T11:29:54;27.80;49.80
40816;DHT22;26535;48.788;9.214;2023-06-04T11:32:23;28.10;49.90
40816;DHT22;26535;48.788;9.214;2023-06-04T11:34:49;28.30;49.00
40816;DHT22;26535;48.788;9.214;2023-06-04T11:37:15;28.60;48.40
40816;DHT22;26535;48.788;9.214;2023-06-04T11:39:41;28.90;48.30
40816;DHT22;26535;48.788;9.214;2023-06-04T11:42:09;29.50;48.10
40816;DHT22;26535;48.788;9.214;2023-06-04T11:44:36;30.10;47.40
40816;DHT22;26535;48.788;9.214;2023-06-04T11:47:07;30.50;46.80
40816;DHT22;26535;48.788;9.214;2023-06-04T11:49:34;31.70;45.90
40816;DHT22;26535;48.788;9.214;2023-06-04T11:52:01;32.80;45.40
40816;DHT22;26535;48.788;9.214;2023-06-04T11:54:27;34.00;44.30
40816;DHT22;26535;48.788;9.214;2023-06-04T11:56:53;34.60;43.60
40816;DHT22;26535;48.788;9.214;2023-06-04T11:59:19;34.50;43.50
40816;DHT22;26535;48.788;9.214;2023-06-04T12:01:46;35.00;42.60
40816;DHT22;26535;48.788;9.214;2023-06-04T12:04:17;35.60;42.00
40816;DHT22;26535;48.788;9.214;2023-06-04T12:06:57;36.60;41.80
40816;DHT22;26535;48.788;9.214;2023-06-04T12:09:24;36.70;41.10
40816;DHT22;26535;48.788;9.214;2023-06-04T12:11:58;36.60;41.40
40816;DHT22;26535;48.788;9.214;2023-06-04T12:14:24;37.00;41.40
40816;DHT22;26535;48.788;9.214;2023-06-04T12:17:07;37.60;40.90
40816;DHT22;26535;48.788;9.214;2023-06-04T12:19:34;37.90;40.50
40816;DHT22;26535;48.788;9.214;2023-06-04T12:22:10;37.90;40.70
40816;DHT22;26535;48.788;9.214;2023-06-04T12:24:53;38.20;40.40
40816;DHT22;26535;48.788;9.214;2023-06-04T12:27:20;38.20;39.50
40816;DHT22;26535;48.788;9.214;2023-06-04T12:30:15;37.70;39.40
40816;DHT22;26535;48.788;9.214;2023-06-04T12:32:41;37.40;39.80
40816;DHT22;26535;48.788;9.214;2023-06-04T12:35:08;38.90;39.50
40816;DHT22;26535;48.788;9.214;2023-06-04T12:37:33;39.40;39.80
40816;DHT22;26535;48.788;9.214;2023-06-04T12:39:59;39.60;39.10
40816;DHT22;26535;48.788;9.214;2023-06-04T12:42:25;40.20;38.80
40816;DHT22;26535;48.788;9.214;2023-06-04T12:44:50;40.80;38.20
40816;DHT22;26535;48.788;9.214;2023-06-04T12:47:16;40.30;38.00
40816;DHT22;26535;48.788;9.214;2023-06-04T12:49:42;40.30;37.70
40816;DHT22;26535;48.788;9.214;2023-06-04T12:52:08;40.70;38.20
40816;DHT22;26535;48.788;9.214;2023-06-04T12:54:34;40.20;39.00
40816;DHT22;26535;48.788;9.214;2023-06-04T12:57:00;40.70;38.30
40816;DHT22;26535;48.788;9.214;2023-06-04T12:59:26;41.20;37.80
40816;DHT22;26535;48.788;9.214;2023-06-04T13:01:53;41.30;37.40
40816;DHT22;26535;48.788;9.214;2023-06-04T13:04:19;41.70;37.60
40816;DHT22;26535;48.788;9.214;2023-06-04T13:06:44;41.50;36.90
40816;DHT22;26535;48.788;9.214;2023-06-04T13:09:13;40.60;37.30
40816;DHT22;26535;48.788;9.214;2023-06-04T13:11:42;41.10;37.10
40816;DHT22;26535;48.788;9.214;2023-06-04T13:14:08;40.30;37.20
40816;DHT22;26535;48.788;9.214;2023-06-04T13:16:35;40.30;37.80
40816;DHT22;26535;48.788;9.214;2023-06-04T13:19:01;41.10;36.80
40816;DHT22;26535;48.788;9.214;2023-06-04T13:21:27;41.20;36.30
40816;DHT22;26535;48.788;9.214;2023-06-04T13:23:53;42.00;36.50
40816;DHT22;26535;48.788;9.214;2023-06-04T13:26:20;42.40;36.50
40816;DHT22;26535;48.788;9.214;2023-06-04T13:31:12;44.00;35.70
40816;DHT22;26535;48.788;9.214;2023-06-04T13:33:38;43.90;35.60
40816;DHT22;26535;48.788;9.214;2023-06-04T13:36:05;43.50;35.40
40816;DHT22;26535;48.788;9.214;2023-06-04T13:38:31;43.60;36.20
40816;DHT22;26535;48.788;9.214;2023-06-04T13:40:57;43.80;35.50
40816;DHT22;26535;48.788;9.214;2023-06-04T13:43:23;44.30;35.50
40816;DHT22;26535;48.788;9.214;2023-06-04T13:45:49;44.60;35.90
40816;DHT22;26535;48.788;9.214;2023-06-04T13:48:15;45.20;35.10
40816;DHT22;26535;48.788;9.214;2023-06-04T13:50:41;44.40;34.70
40816;DHT22;26535;48.788;9.214;2023-06-04T13:53:08;44.00;34.80
40816;DHT22;26535;48.788;9.214;2023-06-04T13:55:34;43.90;34.90
40816;DHT22;26535;48.788;9.214;2023-06-04T13:57:59;44.00;35.20
40816;DHT22;26535;48.788;9.214;2023-06-04T14:00:25;44.10;34.30
40816;DHT22;26535;48.788;9.214;2023-06-04T14:02:51;45.00;34.50
40816;DHT22;26535;48.788;9.214;2023-06-04T14:05:17;45.60;33.50
40816;DHT22;26535;48.788;9.214;2023-06-04T14:07:43;45.40;33.60
40816;DHT22;26535;48.788;9.214;2023-06-04T14:10:12;46.00;33.30
40816;DHT22;26535;48.788;9.214;2023-06-04T14:12:39;46.20;33.00
40816;DHT22;26535;48.788;9.214;2023-06-04T14:15:10;46.40;33.40
40816;DHT22;26535;48.788;9.214;2023-06-04T14:17:38;46.00;33.70
40816;DHT22;26535;48.788;9.214;2023-06-04T14:20:05;45.30;34.00
40816;DHT22;26535;48.788;9.214;2023-06-04T14:22:37;45.10;33.90
40816;DHT22;26535;48.788;9.214;2023-06-04T14:25:04;44.60;34.00
40816;DHT22;26535;48.788;9.214;2023-06-04T14:27:31;44.00;33.70
40816;DHT22;26535;48.788;9.214;2023-06-04T14:29:56;44.50;34.40
40816;DHT22;26535;48.788;9.214;2023-06-04T14:32:22;45.00;34.10
40816;DHT22;26535;48.788;9.214;2023-06-04T14:34:49;45.40;33.90
40816;DHT22;26535;48.788;9.214;2023-06-04T14:37:14;44.40;34.10
40816;DHT22;26535;48.788;9.214;2023-06-04T14:39:40;43.80;33.60
40816;DHT22;26535;48.788;9.214;2023-06-04T14:42:06;44.10;34.10
40816;DHT22;26535;48.788;9.214;2023-06-04T14:44:31;45.50;34.10
40816;DHT22;26535;48.788;9.214;2023-06-04T14:46:58;45.60;32.70
40816;DHT22;26535;48.788;9.214;2023-06-04T14:49:24;43.70;33.40
40816;DHT22;26535;48.788;9.214;2023-06-04T14:51:50;44.00;33.80
40816;DHT22;26535;48.788;9.214;2023-06-04T14:54:15;42.90;34.10
40816;DHT22;26535;48.788;9.214;2023-06-04T14:56:41;42.30;34.40
40816;DHT22;26535;48.788;9.214;2023-06-04T14:59:07;43.00;34.00
40816;DHT22;26535;48.788;9.214;2023-06-04T15:01:40;44.20;33.90
40816;DHT22;26535;48.788;9.214;2023-06-04T15:04:06;44.30;33.50
40816;DHT22;26535;48.788;9.214;2023-06-04T15:06:32;45.10;33.60
40816;DHT22;26535;48.788;9.214;2023-06-04T15:08:58;45.70;33.60
40816;DHT22;26535;48.788;9.214;2023-06-04T15:11:24;45.60;33.30
40816;DHT22;26535;48.788;9.214;2023-06-04T15:13:53;45.40;34.20
40816;DHT22;26535;48.788;9.214;2023-06-04T15:16:19;45.60;33.20
40816;DHT22;26535;48.788;9.214;2023-06-04T15:18:45;45.40;33.10
40816;DHT22;26535;48.788;9.214;2023-06-04T15:21:11;44.90;33.30
40816;DHT22;26535;48.788;9.214;2023-06-04T15:23:37;44.90;33.00
40816;DHT22;26535;48.788;9.214;2023-06-04T15:26:03;44.70;33.20
40816;DHT22;26535;48.788;9.214;2023-06-04T15:28:29;44.80;33.40
40816;DHT22;26535;48.788;9.214;2023-06-04T15:30:54;44.90;33.30
40816;DHT22;26535;48.788;9.214;2023-06-04T15:33:20;45.30;33.20
40816;DHT22;26535;48.788;9.214;2023-06-04T15:35:46;45.10;33.30
40816;DHT22;26535;48.788;9.214;2023-06-04T15:38:11;45.60;32.80
40816;DHT22;26535;48.788;9.214;2023-06-04T15:40:37;46.00;33.20
40816;DHT22;26535;48.788;9.214;2023-06-04T15:43:03;46.00;32.40
40816;DHT22;26535;48.788;9.214;2023-06-04T15:45:29;45.80;32.70
40816;DHT22;26535;48.788;9.214;2023-06-04T15:47:54;45.90;32.50
40816;DHT22;26535;48.788;9.214;2023-06-04T15:50:20;45.90;32.80
40816;DHT22;26535;48.788;9.214;2023-06-04T15:52:47;45.30;33.10
40816;DHT22;26535;48.788;9.214;2023-06-04T15:55:14;45.60;32.90
40816;DHT22;26535;48.788;9.214;2023-06-04T15:57:39;45.60;33.00
40816;DHT22;26535;48.788;9.214;2023-06-04T16:00:06;45.40;32.80
40816;DHT22;26535;48.788;9.214;2023-06-04T16:02:32;45.80;32.80
40816;DHT22;26535;48.788;9.214;2023-06-04T16:04:58;45.60;32.90
40816;DHT22;26535;48.788;9.214;2023-06-04T16:07:24;46.30;32.60
40816;DHT22;26535;48.788;9.214;2023-06-04T16:09:49;44.80;32.70
40816;DHT22;26535;48.788;9.214;2023-06-04T16:12:15;43.10;33.20
40816;DHT22;26535;48.788;9.214;2023-06-04T16:14:41;41.70;34.10
40816;DHT22;26535;48.788;9.214;2023-06-04T16:17:07;41.10;34.80
40816;DHT22;26535;48.788;9.214;2023-06-04T16:19:32;41.70;34.30
40816;DHT22;26535;48.788;9.214;2023-06-04T16:21:58;42.00;34.10
40816;DHT22;26535;48.788;9.214;2023-06-04T16:24:24;42.40;34.00
40816;DHT22;26535;48.788;9.214;2023-06-04T16:26:50;42.20;33.80
40816;DHT22;26535;48.788;9.214;2023-06-04T16:29:16;43.10;34.00
40816;DHT22;26535;48.788;9.214;2023-06-04T16:31:42;42.50;34.10
40816;DHT22;26535;48.788;9.214;2023-06-04T16:34:08;42.60;34.10
40816;DHT22;26535;48.788;9.214;2023-06-04T16:36:34;42.60;34.30
40816;DHT22;26535;48.788;9.214;2023-06-04T16:39:02;43.10;34.00
40816;DHT22;26535;48.788;9.214;2023-06-04T16:41:29;42.30;33.90
40816;DHT22;26535;48.788;9.214;2023-06-04T16:43:55;42.00;34.40
40816;DHT22;26535;48.788;9.214;2023-06-04T16:46:23;42.10;34.40
40816;DHT22;26535;48.788;9.214;2023-06-04T16:48:48;42.30;34.30
40816;DHT22;26535;48.788;9.214;2023-06-04T16:51:14;42.20;34.30
40816;DHT22;26535;48.788;9.214;2023-06-04T16:53:40;41.60;34.40
40816;DHT22;26535;48.788;9.214;2023-06-04T16:56:05;41.30;34.50
40816;DHT22;26535;48.788;9.214;2023-06-04T16:58:31;41.90;34.30
40816;DHT22;26535;48.788;9.214;2023-06-04T17:00:59;41.40;34.80
40816;DHT22;26535;48.788;9.214;2023-06-04T17:03:25;41.60;34.80
40816;DHT22;26535;48.788;9.214;2023-06-04T17:05:51;41.70;34.80
40816;DHT22;26535;48.788;9.214;2023-06-04T17:08:17;40.30;35.00
40816;DHT22;26535;48.788;9.214;2023-06-04T17:10:43;40.10;35.40
40816;DHT22;26535;48.788;9.214;2023-06-04T17:13:08;39.90;35.60
40816;DHT22;26535;48.788;9.214;2023-06-04T17:15:34;39.60;35.60
40816;DHT22;26535;48.788;9.214;2023-06-04T17:18:00;39.50;35.60
40816;DHT22;26535;48.788;9.214;2023-06-04T17:20:29;39.50;35.70
40816;DHT22;26535;48.788;9.214;2023-06-04T17:22:59;39.30;35.70
40816;DHT22;26535;48.788;9.214;2023-06-04T17:25:26;38.40;36.20
40816;DHT22;26535;48.788;9.214;2023-06-04T17:27:52;37.70;36.30
40816;DHT22;26535;48.788;9.214;2023-06-04T17:30:18;37.80;36.40
40816;DHT22;26535;48.788;9.214;2023-06-04T17:32:45;37.20;36.40
40816;DHT22;26535;48.788;9.214;2023-06-04T17:35:12;36.90;36.90
40816;DHT22;26535;48.788;9.214;2023-06-04T17:37:38;36.40;37.10
40816;DHT22;26535;48.788;9.214;2023-06-04T17:40:06;35.90;37.30
40816;DHT22;26535;48.788;9.214;2023-06-04T17:42:32;35.90;37.60
40816;DHT22;26535;48.788;9.214;2023-06-04T17:44:57;36.30;37.60
40816;DHT22;26535;48.788;9.214;2023-06-04T17:47:26;36.20;37.40
40816;DHT22;26535;48.788;9.214;2023-06-04T17:49:51;36.00;37.40
40816;DHT22;26535;48.788;9.214;2023-06-04T17:52:17;36.00;37.50
40816;DHT22;26535;48.788;9.214;2023-06-04T17:54:43;35.70;37.50
40816;DHT22;26535;48.788;9.214;2023-06-04T17:57:08;35.00;37.70
40816;DHT22;26535;48.788;9.214;2023-06-04T17:59:34;34.70;37.80
40816;DHT22;26535;48.788;9.214;2023-06-04T18:02:00;34.50;38.70
40816;DHT22;26535;48.788;9.214;2023-06-04T18:04:25;34.50;38.20
40816;DHT22;26535;48.788;9.214;2023-06-04T18:06:51;34.20;38.20
40816;DHT22;26535;48.788;9.214;2023-06-04T18:09:17;33.70;38.70
40816;DHT22;26535;48.788;9.214;2023-06-04T18:11:43;33.80;39.40
40816;DHT22;26535;48.788;9.214;2023-06-04T18:14:09;33.70;38.70
40816;DHT22;26535;48.788;9.214;2023-06-04T18:16:35;32.90;39.20
40816;DHT22;26535;48.788;9.214;2023-06-04T18:19:00;32.60;39.50
40816;DHT22;26535;48.788;9.214;2023-06-04T18:21:26;32.20;39.70
40816;DHT22;26535;48.788;9.214;2023-06-04T18:23:52;32.10;39.90
40816;DHT22;26535;48.788;9.214;2023-06-04T18:26:18;31.50;40.10
40816;DHT22;26535;48.788;9.214;2023-06-04T18:28:44;30.80;40.70
40816;DHT22;26535;48.788;9.214;2023-06-04T18:31:10;29.70;41.50
40816;DHT22;26535;48.788;9.214;2023-06-04T18:33:36;28.90;42.50
40816;DHT22;26535;48.788;9.214;2023-06-04T18:36:04;28.20;43.50
40816;DHT22;26535;48.788;9.214;2023-06-04T18:38:30;27.80;43.80
40816;DHT22;26535;48.788;9.214;2023-06-04T18:40:56;27.30;44.40
40816;DHT22;26535;48.788;9.214;2023-06-04T18:43:21;26.80;45.40
40816;DHT22;26535;48.788;9.214;2023-06-04T18:45:47;26.70;45.30
40816;DHT22;26535;48.788;9.214;2023-06-04T18:48:14;26.40;45.70
40816;DHT22;26535;48.788;9.214;2023-06-04T18:50:41;26.20;46.20
40816;DHT22;26535;48.788;9.214;2023-06-04T18:53:08;26.10;45.80
40816;DHT22;26535;48.788;9.214;2023-06-04T18:55:34;25.90;46.10
40816;DHT22;26535;48.788;9.214;2023-06-04T18:57:59;25.70;46.30
40816;DHT22;26535;48.788;9.214;2023-06-04T19:00:25;25.50;46.50
40816;DHT22;26535;48.788;9.214;2023-06-04T19:02:51;25.30;46.80
40816;DHT22;26535;48.788;9.214;2023-06-04T19:05:17;25.10;46.80
40816;DHT22;26535;48.788;9.214;2023-06-04T19:07:43;25.00;47.40
40816;DHT22;26535;48.788;9.214;2023-06-04T19:10:09;24.80;47.50
40816;DHT22;26535;48.788;9.214;2023-06-04T19:12:34;24.70;47.70
40816;DHT22;26535;48.788;9.214;2023-06-04T19:15:00;24.60;48.00
40816;DHT22;26535;48.788;9.214;2023-06-04T19:17:26;24.50;48.30
40816;DHT22;26535;48.788;9.214;2023-06-04T19:19:54;24.30;48.60
40816;DHT22;26535;48.788;9.214;2023-06-04T19:22:20;24.10;48.90
40816;DHT22;26535;48.788;9.214;2023-06-04T19:24:47;23.90;48.80
40816;DHT22;26535;48.788;9.214;2023-06-04T19:27:12;23.80;49.30
40816;DHT22;26535;48.788;9.214;2023-06-04T19:29:39;23.70;49.90
40816;DHT22;26535;48.788;9.214;2023-06-04T19:32:09;23.60;49.60
40816;DHT22;26535;48.788;9.214;2023-06-04T19:34:35;23.50;50.30
40816;DHT22;26535;48.788;9.214;2023-06-04T19:37:02;23.40;50.30
40816;DHT22;26535;48.788;9.214;2023-06-04T19:39:29;23.20;50.30
40816;DHT22;26535;48.788;9.214;2023-06-04T19:41:54;23.10;50.60
40816;DHT22;26535;48.788;9.214;2023-06-04T19:44:20;23.10;50.80
40816;DHT22;26535;48.788;9.214;2023-06-04T19:46:46;23.10;51.00
40816;DHT22;26535;48.788;9.214;2023-06-04T19:49:15;23.00;51.00
40816;DHT22;26535;48.788;9.214;2023-06-04T19:51:41;22.90;51.20
40816;DHT22;26535;48.788;9.214;2023-06-04T19:54:07;22.80;51.10
40816;DHT22;26535;48.788;9.214;2023-06-04T19:56:33;22.60;51.40
40816;DHT22;26535;48.788;9.214;2023-06-04T19:58:59;22.50;52.00
40816;DHT22;26535;48.788;9.214;2023-06-04T20:01:25;22.40;51.90
40816;DHT22;26535;48.788;9.214;2023-06-04T20:03:51;22.40;52.40
40816;DHT22;26535;48.788;9.214;2023-06-04T20:06:17;22.30;52.80
40816;DHT22;26535;48.788;9.214;2023-06-04T20:08:42;22.30;52.80
40816;DHT22;26535;48.788;9.214;2023-06-04T20:11:09;22.20;52.90
40816;DHT22;26535;48.788;9.214;2023-06-04T20:13:35;22.10;53.10
40816;DHT22;26535;48.788;9.214;2023-06-04T20:16:02;22.00;53.60
40816;DHT22;26535;48.788;9.214;2023-06-04T20:18:28;21.90;53.60
40816;DHT22;26535;48.788;9.214;2023-06-04T20:20:56;21.90;53.60
40816;DHT22;26535;48.788;9.214;2023-06-04T20:23:22;21.90;53.60
40816;DHT22;26535;48.788;9.214;2023-06-04T20:25:48;21.80;53.70
40816;DHT22;26535;48.788;9.214;2023-06-04T20:28:14;21.80;53.80
40816;DHT22;26535;48.788;9.214;2023-06-04T20:30:40;21.60;53.80
40816;DHT22;26535;48.788;9.214;2023-06-04T20:33:06;21.50;54.60